Time;durP1;ratioP1;P1;durP2;ratioP2;P2;SDS_P1;SDS_P2;PMS_P1;PMS_P2;Temp;Humidity;BMP_temperature;BMP_pressure;BME280_temperature;BME280_humidity;BME280_pressure;Samples;Min_cycle;Max_cycle;Signal;HPM_P1;HPM_P2
2020/12/02 00:00:00;;;;;;;2.20;2.00;;;21.40;46.20;;;;;;1408614;100;21248;-34
2020/12/02 00:02:31;;;;;;;2.05;1.85;;;21.40;46.20;;;;;;1395774;100;21738;-36
2020/12/02 00:05:02;;;;;;;2.05;1.70;;;21.40;46.20;;;;;;1392573;101;21871;-36
2020/12/02 00:07:32;;;;;;;1.77;1.65;;;21.30;46.20;;;;;;1385893;102;21419;-36
2020/12/02 00:10:00;;;;;;;2.77;1.85;;;21.30;46.10;;;;;;1364843;102;21842;-35
2020/12/02 00:12:28;;;;;;;3.02;1.80;;;21.30;46.20;;;;;;1388778;101;21247;-36
2020/12/02 00:14:56;;;;;;;3.05;2.00;;;21.30;46.20;;;;;;1389417;102;21431;-35
2020/12/02 00:17:24;;;;;;;2.05;1.82;;;21.40;46.20;;;;;;1388014;101;21770;-36
2020/12/02 00:19:52;;;;;;;1.90;1.70;;;21.30;46.20;;;;;;1388878;102;21382;-35
2020/12/02 00:22:23;;;;;;;1.90;1.70;;;21.30;46.20;;;;;;1373169;102;21328;-38
2020/12/02 00:24:52;;;;;;;2.00;1.70;;;21.30;46.20;;;;;;1387780;102;21284;-35
2020/12/02 00:27:25;;;;;;;1.80;1.62;;;21.30;46.20;;;;;;1388271;102;21261;-36
2020/12/02 00:29:54;;;;;;;1.95;1.75;;;21.30;46.80;;;;;;1388663;101;21266;-35
2020/12/02 00:32:27;;;;;;;1.72;1.62;;;21.30;46.30;;;;;;1385691;102;21748;-35
2020/12/02 00:34:56;;;;;;;1.45;1.35;;;21.30;46.20;;;;;;1390817;100;21429;-36
2020/12/02 00:37:25;;;;;;;1.70;1.60;;;21.30;46.30;;;;;;1388155;102;22448;-34
2020/12/02 00:39:54;;;;;;;1.50;1.40;;;21.30;46.20;;;;;;1388921;101;21362;-34
2020/12/02 00:42:22;;;;;;;1.98;1.77;;;21.30;46.20;;;;;;1390068;101;21302;-37
2020/12/02 00:44:51;;;;;;;1.80;1.70;;;21.30;46.80;;;;;;1388812;101;21395;-35
2020/12/02 00:47:21;;;;;;;2.12;1.87;;;21.20;46.20;;;;;;1389995;102;21276;-36
2020/12/02 00:49:54;;;;;;;1.60;1.50;;;21.30;46.30;;;;;;1386270;102;21322;-35
2020/12/02 00:52:23;;;;;;;1.77;1.67;;;21.30;46.20;;;;;;1389133;102;21779;-36
2020/12/02 00:54:51;;;;;;;1.55;1.45;;;21.30;46.20;;;;;;1399073;101;21247;-36
2020/12/02 00:57:24;;;;;;;1.67;1.50;;;21.30;46.30;;;;;;1411584;99;21237;-34
2020/12/02 00:59:55;;;;;;;1.42;1.32;;;21.20;46.20;;;;;;1404555;101;21789;-35
2020/12/02 01:02:38;;;;;;;1.87;1.60;;;21.20;46.20;;;;;;1410178;99;21275;-34
2020/12/02 01:05:11;;;;;;;2.20;1.75;;;21.20;46.30;;;;;;1417368;99;68226;-35
2020/12/02 01:07:43;;;;;;;1.67;1.57;;;21.20;46.20;;;;;;1421476;99;21358;-36
2020/12/02 01:10:12;;;;;;;2.22;1.67;;;21.20;46.20;;;;;;1423149;99;21439;-34
2020/12/02 01:12:41;;;;;;;2.42;1.57;;;21.20;46.20;;;;;;1423594;99;21749;-34
2020/12/02 01:15:10;;;;;;;2.05;1.62;;;21.20;46.80;;;;;;1393354;100;21240;-35
2020/12/02 01:17:38;;;;;;;1.70;1.42;;;21.20;46.30;;;;;;1405536;99;21716;-35
2020/12/02 01:20:08;;;;;;;1.55;1.40;;;21.20;46.30;;;;;;1422201;99;21382;-36
2020/12/02 01:22:44;;;;;;;2.62;1.77;;;21.20;46.40;;;;;;1407202;99;21410;-34
2020/12/02 01:25:17;;;;;;;1.80;1.47;;;21.20;46.30;;;;;;1420904;99;21270;-34
2020/12/02 01:27:56;;;;;;;1.87;1.77;;;21.20;46.30;;;;;;1422354;99;21244;-36
2020/12/02 01:30:25;;;;;;;1.85;1.72;;;21.20;46.30;;;;;;1430367;99;21269;-35
2020/12/02 01:32:53;;;;;;;1.35;1.22;;;21.20;46.50;;;;;;1426592;99;21348;-34
2020/12/02 01:35:23;;;;;;;2.92;2.00;;;21.20;46.50;;;;;;1421716;99;21370;-36
2020/12/02 01:37:57;;;;;;;1.42;1.32;;;21.20;46.50;;;;;;1415476;99;21284;-35
2020/12/02 01:40:28;;;;;;;2.10;1.55;;;21.20;46.50;;;;;;1419981;99;21798;-34
2020/12/02 01:43:01;;;;;;;2.47;1.70;;;21.20;46.50;;;;;;1418990;99;21652;-35
2020/12/02 01:45:32;;;;;;;1.52;1.40;;;21.20;46.50;;;;;;1419721;99;21264;-35
2020/12/02 01:48:22;;;;;;;2.17;1.80;;;21.10;46.40;;;;;;1415919;99;21338;-36
2020/12/02 01:51:04;;;;;;;2.05;1.90;;;21.20;46.60;;;;;;1422588;96;68122;-38
2020/12/02 01:53:38;;;;;;;1.70;1.40;;;21.10;46.40;;;;;;1415352;99;21232;-36
2020/12/02 01:56:08;;;;;;;1.65;1.55;;;21.20;46.50;;;;;;1405161;100;21244;-36
2020/12/02 01:58:44;;;;;;;2.67;1.80;;;21.10;46.40;;;;;;1380242;102;21197;-35
2020/12/02 02:01:18;;;;;;;2.17;1.95;;;21.10;46.40;;;;;;1383943;102;21426;-36
2020/12/02 02:03:48;;;;;;;1.70;1.60;;;21.10;46.40;;;;;;1386613;101;21335;-35
2020/12/02 02:06:22;;;;;;;1.75;1.65;;;21.10;46.40;;;;;;1385257;102;21324;-35
2020/12/02 02:08:49;;;;;;;1.80;1.70;;;21.10;46.40;;;;;;1382242;102;22487;-35
2020/12/02 02:11:20;;;;;;;2.08;1.87;;;21.10;46.50;;;;;;1369137;102;21273;-35
2020/12/02 02:14:00;;;;;;;2.25;1.70;;;21.10;46.50;;;;;;1379845;102;21294;-34
2020/12/02 02:16:33;;;;;;;3.15;1.87;;;21.10;46.50;;;;;;1372572;102;21281;-34
2020/12/02 02:19:01;;;;;;;1.60;1.50;;;21.10;46.40;;;;;;1385579;102;21330;-36
2020/12/02 02:21:32;;;;;;;1.72;1.60;;;21.10;46.40;;;;;;1385398;101;21301;-35
2020/12/02 02:24:00;;;;;;;2.72;1.85;;;21.10;46.40;;;;;;1386867;102;21771;-35
2020/12/02 02:26:40;;;;;;;3.47;1.98;;;21.10;46.40;;;;;;1384718;102;21268;-35
2020/12/02 02:29:32;;;;;;;1.98;1.82;;;21.10;46.40;;;;;;1386392;102;21756;-35
2020/12/02 02:32:12;;;;;;;1.77;1.67;;;21.10;46.50;;;;;;1385715;99;68110;-37
2020/12/02 02:34:42;;;;;;;1.62;1.52;;;21.10;46.40;;;;;;1381235;102;21663;-35
2020/12/02 02:37:13;;;;;;;2.75;1.80;;;21.10;46.60;;;;;;1372667;102;21988;-36
2020/12/02 02:39:42;;;;;;;2.17;1.70;;;21.10;46.50;;;;;;1382445;102;21261;-35
2020/12/02 02:42:28;;;;;;;2.15;1.87;;;21.10;46.50;;;;;;1386164;101;21788;-35
2020/12/02 02:45:01;;;;;;;2.30;2.10;;;21.10;46.60;;;;;;1383959;102;67372;-37
2020/12/02 02:47:26;;;;;;;2.33;1.98;;;21.10;46.70;;;;;;1387896;102;22045;-35
2020/12/02 02:49:53;;;;;;;6.08;1.98;;;21.10;46.80;;;;;;1374519;102;21942;-34
2020/12/02 02:52:21;;;;;;;2.62;1.90;;;21.10;46.80;;;;;;1384095;102;21361;-34
2020/12/02 02:54:48;;;;;;;2.40;2.05;;;21.10;46.80;;;;;;1367472;103;21740;-36
2020/12/02 02:57:16;;;;;;;2.22;1.57;;;21.10;46.70;;;;;;1355734;104;21473;-35
2020/12/02 02:59:44;;;;;;;3.10;2.25;;;21.10;46.70;;;;;;1370934;103;21294;-35
2020/12/02 03:02:15;;;;;;;1.70;1.60;;;21.10;46.70;;;;;;1368922;103;21379;-34
2020/12/02 03:04:43;;;;;;;1.95;1.80;;;21.20;46.60;;;;;;1374816;103;21444;-35
2020/12/02 03:07:16;;;;;;;2.27;2.08;;;21.20;46.60;;;;;;1371416;103;21366;-36
2020/12/02 03:09:45;;;;;;;2.02;1.70;;;21.20;46.50;;;;;;1369047;103;21279;-36
2020/12/02 03:12:13;;;;;;;1.82;1.62;;;21.20;46.50;;;;;;1367138;103;22480;-36
2020/12/02 03:14:44;;;;;;;2.92;1.98;;;21.20;46.50;;;;;;1370859;103;21321;-37
2020/12/02 03:17:15;;;;;;;2.25;1.75;;;21.20;46.50;;;;;;1369070;102;21278;-36
2020/12/02 03:19:46;;;;;;;2.87;2.17;;;21.20;46.50;;;;;;1374674;103;21273;-36
2020/12/02 03:22:14;;;;;;;1.90;1.70;;;21.20;46.50;;;;;;1365270;103;21340;-36
2020/12/02 03:24:44;;;;;;;2.95;2.30;;;21.20;46.50;;;;;;1380229;103;21295;-35
2020/12/02 03:27:11;;;;;;;1.92;1.72;;;21.20;46.50;;;;;;1355690;104;21303;-44
2020/12/02 03:29:39;;;;;;;2.72;2.02;;;21.20;46.50;;;;;;1372508;103;21738;-38
2020/12/02 03:32:08;;;;;;;2.65;1.75;;;21.30;46.50;;;;;;1376646;103;22243;-36
2020/12/02 03:34:35;;;;;;;3.20;2.10;;;21.30;46.50;;;;;;1370067;102;21855;-36
2020/12/02 03:37:03;;;;;;;2.00;1.87;;;21.30;46.50;;;;;;1363366;103;21474;-36
2020/12/02 03:39:30;;;;;;;2.05;1.85;;;21.30;46.40;;;;;;1377850;103;21347;-36
2020/12/02 03:41:58;;;;;;;2.42;2.17;;;21.30;46.40;;;;;;1344326;104;21305;-36
2020/12/02 03:44:26;;;;;;;1.77;1.65;;;21.30;46.40;;;;;;1363947;103;21286;-35
2020/12/02 03:46:54;;;;;;;2.25;1.75;;;21.30;46.30;;;;;;1376537;103;21260;-34
2020/12/02 03:49:21;;;;;;;1.90;1.75;;;21.30;46.30;;;;;;1359184;104;21348;-36
2020/12/02 03:51:49;;;;;;;3.95;2.08;;;21.40;46.40;;;;;;1370178;103;21609;-36
2020/12/02 03:54:17;;;;;;;2.65;1.87;;;21.40;46.40;;;;;;1380442;103;21755;-36
2020/12/02 03:56:45;;;;;;;2.85;2.35;;;21.40;46.30;;;;;;1387219;101;21283;-35
2020/12/02 03:59:13;;;;;;;2.10;1.90;;;21.40;46.30;;;;;;1426118;98;21800;-37
2020/12/02 04:01:40;;;;;;;3.00;2.22;;;21.40;46.30;;;;;;1405966;100;21320;-36
2020/12/02 04:04:08;;;;;;;2.30;2.10;;;21.40;46.30;;;;;;1420876;99;21256;-37
2020/12/02 04:06:35;;;;;;;2.60;2.10;;;21.40;46.30;;;;;;1427499;99;21248;-36
2020/12/02 04:09:03;;;;;;;2.45;2.08;;;21.40;46.20;;;;;;1410759;99;21272;-37
2020/12/02 04:11:31;;;;;;;3.72;2.40;;;21.40;46.30;;;;;;1422218;99;21221;-36
2020/12/02 04:13:59;;;;;;;4.65;2.77;;;21.40;46.20;;;;;;1404963;99;21288;-35
2020/12/02 04:16:27;;;;;;;3.55;2.30;;;21.40;46.20;;;;;;1423043;98;21267;-36
2020/12/02 04:18:55;;;;;;;2.47;2.25;;;21.40;46.20;;;;;;1424050;99;21253;-36
2020/12/02 04:21:25;;;;;;;2.10;1.90;;;21.40;46.20;;;;;;1420171;99;21205;-36
2020/12/02 04:23:57;;;;;;;3.12;2.30;;;21.40;46.20;;;;;;1429641;98;21241;-35
2020/12/02 04:26:26;;;;;;;1.92;1.70;;;21.50;46.30;;;;;;1422584;99;21212;-37
2020/12/02 04:28:53;;;;;;;2.30;2.10;;;21.50;46.30;;;;;;1412987;99;21903;-36
2020/12/02 04:31:21;;;;;;;2.67;2.45;;;21.40;46.20;;;;;;1427133;99;21646;-37
2020/12/02 04:33:49;;;;;;;2.10;1.90;;;21.50;46.20;;;;;;1399919;101;21373;-35
2020/12/02 04:36:17;;;;;;;2.70;2.50;;;21.40;46.20;;;;;;1400276;101;21348;-36
2020/12/02 04:38:44;;;;;;;2.33;2.12;;;21.50;46.70;;;;;;1428291;99;21269;-35
2020/12/02 04:41:15;;;;;;;3.10;2.30;;;21.50;46.20;;;;;;1421358;99;21794;-36
2020/12/02 04:43:46;;;;;;;3.25;2.30;;;21.50;46.20;;;;;;1417042;99;21400;-39
2020/12/02 04:46:22;;;;;;;2.67;2.10;;;21.40;46.10;;;;;;1405307;100;21317;-35
2020/12/02 04:48:53;;;;;;;3.12;2.10;;;21.50;46.20;;;;;;1421475;99;21362;-35
2020/12/02 04:51:26;;;;;;;2.77;2.52;;;21.50;46.20;;;;;;1426369;99;21750;-36
2020/12/02 04:53:56;;;;;;;3.22;2.58;;;21.50;46.20;;;;;;1420880;99;21265;-36
2020/12/02 04:56:25;;;;;;;2.70;2.15;;;21.50;46.10;;;;;;1420056;98;21265;-36
2020/12/02 04:58:56;;;;;;;2.50;2.30;;;21.50;46.10;;;;;;1402167;101;21264;-36
2020/12/02 05:01:31;;;;;;;2.60;2.25;;;21.50;46.70;;;;;;1422362;99;21195;-35
2020/12/02 05:04:02;;;;;;;3.40;2.55;;;21.50;46.10;;;;;;1420959;99;21312;-35
2020/12/02 05:06:41;;;;;;;2.35;2.15;;;21.50;46.70;;;;;;1413004;99;21336;-36
2020/12/02 05:09:20;;;;;;;3.85;2.47;;;21.50;46.10;;;;;;1412259;99;67471;-37
2020/12/02 05:12:05;;;;;;;2.52;2.33;;;21.50;46.10;;;;;;1404821;101;21815;-36
2020/12/02 05:14:38;;;;;;;5.25;2.58;;;21.50;46.10;;;;;;1420655;99;67367;-37
2020/12/02 05:17:27;;;;;;;3.37;2.67;;;21.50;46.10;;;;;;1413020;99;21301;-36
2020/12/02 05:20:07;;;;;;;2.65;2.08;;;21.50;46.10;;;;;;1417756;98;67743;-39
2020/12/02 05:22:38;;;;;;;2.50;2.30;;;21.50;46.10;;;;;;1412435;99;21359;-37
2020/12/02 05:25:09;;;;;;;3.08;2.70;;;21.50;46.10;;;;;;1413739;99;21258;-36
2020/12/02 05:27:37;;;;;;;3.20;2.77;;;21.50;46.00;;;;;;1416009;99;21218;-36
2020/12/02 05:30:17;;;;;;;5.97;2.67;;;21.50;46.10;;;;;;1417927;99;21434;-36
2020/12/02 05:33:03;;;;;;;3.17;2.52;;;21.50;46.00;;;;;;1414802;99;21349;-36
2020/12/02 05:35:33;;;;;;;2.63;2.33;;;21.50;46.00;;;;;;1407938;99;67296;-37
2020/12/02 05:38:02;;;;;;;2.60;2.33;;;21.50;46.00;;;;;;1380337;102;21251;-36
2020/12/02 05:40:32;;;;;;;3.05;2.40;;;21.50;46.00;;;;;;1397019;100;21286;-37
2020/12/02 05:43:06;;;;;;;3.30;2.47;;;21.50;46.00;;;;;;1401939;101;21306;-37
2020/12/02 05:45:37;;;;;;;3.12;2.35;;;21.50;46.00;;;;;;1390926;101;21246;-37
2020/12/02 05:48:07;;;;;;;4.85;2.98;;;21.50;46.00;;;;;;1400373;101;21690;-36
2020/12/02 05:50:35;;;;;;;4.05;2.72;;;21.50;46.00;;;;;;1389648;101;21272;-35
2020/12/02 05:53:06;;;;;;;6.17;2.77;;;21.50;46.00;;;;;;1396909;101;21339;-37
2020/12/02 05:55:35;;;;;;;4.53;3.22;;;21.50;46.00;;;;;;1409168;101;21761;-36
2020/12/02 05:58:11;;;;;;;4.40;2.90;;;21.50;46.00;;;;;;1406452;100;21358;-37
2020/12/02 06:00:38;;;;;;;4.00;3.17;;;21.50;46.10;;;;;;1404361;100;21296;-36
2020/12/02 06:03:09;;;;;;;3.60;2.62;;;21.50;46.10;;;;;;1409423;100;21829;-34
2020/12/02 06:05:36;;;;;;;4.70;2.90;;;21.50;46.10;;;;;;1407075;100;21352;-37
2020/12/02 06:08:06;;;;;;;3.70;2.83;;;21.50;46.10;;;;;;1407620;100;21367;-37
2020/12/02 06:10:46;;;;;;;4.12;2.90;;;21.50;46.10;;;;;;1386978;101;21354;-37
2020/12/02 06:13:19;;;;;;;5.55;3.45;;;21.50;46.10;;;;;;1386626;102;21525;-37
2020/12/02 06:15:47;;;;;;;3.35;2.83;;;21.50;46.10;;;;;;1381481;102;21518;-40
2020/12/02 06:18:33;;;;;;;3.98;3.20;;;21.50;46.10;;;;;;1382424;102;21337;-36
2020/12/02 06:21:02;;;;;;;4.10;3.10;;;21.50;46.10;;;;;;1385911;102;68146;-37
2020/12/02 06:23:38;;;;;;;4.03;2.90;;;21.50;46.00;;;;;;1389092;102;21232;-37
2020/12/02 06:26:06;;;;;;;3.83;2.90;;;21.50;46.00;;;;;;1383052;102;21230;-36
2020/12/02 06:28:37;;;;;;;4.72;3.17;;;21.50;46.00;;;;;;1382587;102;21819;-37
2020/12/02 06:31:07;;;;;;;4.42;2.92;;;21.50;46.00;;;;;;1385572;102;21285;-35
2020/12/02 06:33:41;;;;;;;5.71;3.24;;;21.50;45.90;;;;;;883126;97;3002277;-34
2020/12/02 06:36:17;;;;;;;5.22;3.27;;;21.60;46.90;;;;;;582136;94;3002788;-33
2020/12/02 06:38:47;;;;;;;5.25;3.40;;;21.60;46.10;;;;;;582236;95;3001921;-33
2020/12/02 06:41:32;;;;;;;6.15;3.62;;;21.70;46.10;;;;;;582762;95;3001873;-33
2020/12/02 06:44:18;;;;;;;4.25;3.37;;;21.70;46.00;;;;;;583247;96;3002354;-33
2020/12/02 06:47:09;;;;;;;5.30;3.37;;;21.70;46.00;;;;;;581639;95;3001880;-35
2020/12/02 06:49:39;;;;;;;4.53;2.70;;;21.80;46.00;;;;;;590887;94;3002295;-33
2020/12/02 06:52:13;;;;;;;5.40;3.90;;;21.90;45.80;;;;;;582810;96;3001904;-33
2020/12/02 06:54:41;;;;;;;4.50;3.45;;;22.00;45.80;;;;;;585431;94;3001913;-33
2020/12/02 06:57:20;;;;;;;5.22;3.62;;;22.00;45.90;;;;;;581923;95;3002042;-33
2020/12/02 06:59:51;;;;;;;4.67;3.37;;;22.10;45.60;;;;;;588504;94;3002508;-32
2020/12/02 07:02:27;;;;;;;6.55;3.72;;;22.10;45.00;;;;;;580217;95;3002286;-35
2020/12/02 07:04:57;;;;;;;3.90;3.10;;;22.20;45.80;;;;;;583574;95;3002038;-34
2020/12/02 07:07:25;;;;;;;5.00;3.37;;;22.30;45.40;;;;;;582093;95;3001658;-33
2020/12/02 07:09:52;;;;;;;4.40;2.95;;;22.30;45.30;;;;;;583597;95;3001887;-33
2020/12/02 07:12:23;;;;;;;4.00;3.22;;;22.30;45.50;;;;;;589641;95;3001917;-35
2020/12/02 07:14:51;;;;;;;5.08;4.08;;;22.30;45.40;;;;;;583792;95;3001833;-35
2020/12/02 07:17:22;;;;;;;4.60;3.05;;;22.40;45.40;;;;;;587007;94;3003352;-34
2020/12/02 07:19:49;;;;;;;9.53;3.35;;;22.40;45.30;;;;;;583585;93;3002376;-33
2020/12/02 07:22:26;;;;;;;4.58;3.40;;;22.50;45.80;;;;;;585160;94;3002536;-33
2020/12/02 07:24:56;;;;;;;4.78;3.60;;;22.50;45.50;;;;;;586532;93;3003706;-34
2020/12/02 07:27:24;;;;;;;5.33;3.15;;;22.60;44.90;;;;;;590728;94;3002290;-33
2020/12/02 07:30:00;;;;;;;4.12;3.08;;;22.60;44.90;;;;;;587758;93;3002326;-33
2020/12/02 07:32:28;;;;;;;6.22;3.50;;;22.60;44.80;;;;;;581087;94;3002535;-33
2020/12/02 07:35:08;;;;;;;3.83;2.95;;;22.60;45.20;;;;;;583477;95;3002517;-33
2020/12/02 07:37:35;;;;;;;5.50;3.30;;;22.70;45.30;;;;;;586089;94;3002044;-34
2020/12/02 07:40:05;;;;;;;5.20;3.40;;;22.70;45.30;;;;;;591029;93;3002359;-34
2020/12/02 07:42:36;;;;;;;7.70;4.28;;;22.70;45.50;;;;;;585758;95;3001744;-34
2020/12/02 07:45:18;;;;;;;5.70;3.87;;;22.70;45.30;;;;;;588728;94;3001646;-34
2020/12/02 07:48:00;;;;;;;4.45;3.20;;;22.80;44.90;;;;;;583739;95;3001943;-32
2020/12/02 07:50:43;;;;;;;4.22;3.35;;;22.80;44.50;;;;;;584168;95;3002078;-33
2020/12/02 07:53:21;;;;;;;5.60;3.77;;;22.80;44.20;;;;;;577916;96;3002101;-34
2020/12/02 07:55:52;;;;;;;4.87;3.52;;;22.80;44.70;;;;;;590069;94;3001985;-34
2020/12/02 07:58:32;;;;;;;4.05;3.05;;;22.80;44.50;;;;;;592145;93;3001749;-34
2020/12/02 08:01:05;;;;;;;3.85;3.37;;;22.80;44.30;;;;;;587765;94;3001978;-34
2020/12/02 08:03:36;;;;;;;5.17;3.55;;;22.80;44.40;;;;;;587848;94;3002233;-33
2020/12/02 08:06:21;;;;;;;7.50;3.75;;;22.90;44.60;;;;;;585670;95;3002530;-33
2020/12/02 08:08:48;;;;;;;5.10;3.12;;;22.80;44.50;;;;;;589311;93;3002011;-34
2020/12/02 08:11:18;;;;;;;3.75;3.33;;;22.90;45.10;;;;;;584835;95;3003061;-34
2020/12/02 08:13:57;;;;;;;4.30;3.37;;;22.90;44.40;;;;;;582880;95;3002482;-34
2020/12/02 08:16:42;;;;;;;3.58;2.85;;;22.80;44.40;;;;;;588607;93;3002349;-34
2020/12/02 08:19:11;;;;;;;5.90;3.55;;;22.80;44.40;;;;;;588826;95;3002192;-33
2020/12/02 08:21:41;;;;;;;5.17;3.40;;;22.80;44.50;;;;;;587990;94;3002022;-33
2020/12/02 08:24:24;;;;;;;7.15;4.12;;;22.80;44.60;;;;;;584310;96;3001999;-33
2020/12/02 08:26:53;;;;;;;7.35;3.75;;;22.80;46.00;;;;;;581106;95;3001962;-33
2020/12/02 08:29:24;;;;;;;9.55;4.58;;;22.80;44.80;;;;;;590286;93;3001926;-33
2020/12/02 08:32:06;;;;;;;5.50;4.20;;;22.80;44.90;;;;;;586636;94;3001959;-33
2020/12/02 08:34:37;;;;;;;6.50;4.00;;;22.80;45.70;;;;;;588058;94;3003601;-33
2020/12/02 08:37:24;;;;;;;6.50;4.20;;;22.80;45.00;;;;;;584410;95;3001997;-33
2020/12/02 08:39:55;;;;;;;7.22;4.22;;;22.90;45.20;;;;;;583277;95;3002314;-33
2020/12/02 08:42:31;;;;;;;8.05;4.10;;;22.90;45.20;;;;;;588510;95;3002137;-33
2020/12/02 08:45:23;;;;;;;6.12;3.95;;;22.90;45.10;;;;;;586647;94;3001935;-33
2020/12/02 08:47:58;;;;;;;6.12;4.22;;;22.90;45.80;;;;;;587621;94;3003568;-34
2020/12/02 08:50:29;;;;;;;11.05;5.08;;;22.90;46.30;;;;;;594898;94;3002108;-34
2020/12/02 08:52:59;;;;;;;11.40;5.35;;;22.90;46.00;;;;;;589348;95;3002510;-33
2020/12/02 08:55:27;;;;;;;10.35;5.33;;;22.90;46.40;;;;;;586844;94;3003523;-34
2020/12/02 08:57:55;;;;;;;8.28;4.67;;;23.00;46.60;;;;;;587465;94;3001750;-34
2020/12/02 09:00:24;;;;;;;12.07;5.60;;;23.00;46.60;;;;;;589048;93;3002398;-35
2020/12/02 09:02:52;;;;;;;15.43;5.12;;;22.90;47.00;;;;;;585471;94;3003384;-34
2020/12/02 09:05:20;;;;;;;11.53;5.20;;;23.00;47.00;;;;;;587198;94;3002411;-34
2020/12/02 09:07:48;;;;;;;11.08;5.35;;;23.00;47.20;;;;;;585574;95;3002326;-33
2020/12/02 09:10:15;;;;;;;10.68;5.50;;;23.00;47.50;;;;;;586536;94;3001842;-33
2020/12/02 09:12:43;;;;;;;10.25;5.80;;;23.00;47.40;;;;;;586977;93;3002305;-34
2020/12/02 09:15:10;;;;;;;8.70;5.83;;;23.00;47.50;;;;;;578733;96;3002031;-34
2020/12/02 09:17:38;;;;;;;8.93;5.25;;;23.00;47.70;;;;;;584920;94;3002211;-33
2020/12/02 09:20:06;;;;;;;9.13;5.17;;;23.00;47.20;;;;;;578428;95;3002005;-34
2020/12/02 09:22:33;;;;;;;9.78;5.00;;;23.00;47.20;;;;;;586259;94;3001923;-34
2020/12/02 09:25:01;;;;;;;11.80;5.87;;;23.00;47.50;;;;;;581404;94;3002000;-33
2020/12/02 09:27:28;;;;;;;13.62;6.35;;;23.00;47.40;;;;;;584452;95;3002368;-33
2020/12/02 09:29:56;;;;;;;14.73;6.00;;;23.00;47.40;;;;;;577745;96;3002011;-33
2020/12/02 09:32:24;;;;;;;7.78;5.08;;;23.00;48.00;;;;;;576308;95;3002502;-32
2020/12/02 09:34:51;;;;;;;12.53;6.00;;;23.00;47.70;;;;;;580006;95;3002341;-32
2020/12/02 09:37:19;;;;;;;12.23;5.87;;;23.00;47.80;;;;;;584601;94;3002031;-33
2020/12/02 09:39:47;;;;;;;14.95;5.37;;;;;;;;;;578255;96;3002241;-34
2020/12/02 09:42:44;;;;;;;17.55;6.30;;;23.10;47.50;;;;;;579629;96;3002006;-33
2020/12/02 09:45:14;;;;;;;10.75;5.72;;;23.10;47.70;;;;;;587419;93;3002922;-33
2020/12/02 09:47:45;;;;;;;10.78;6.12;;;23.10;47.60;;;;;;583237;96;3002377;-33
2020/12/02 09:50:13;;;;;;;10.38;6.10;;;23.10;47.60;;;;;;588006;94;3001984;-34
2020/12/02 09:52:46;;;;;;;16.05;6.17;;;23.10;47.70;;;;;;583315;95;3002440;-33
2020/12/02 09:55:23;;;;;;;9.80;6.10;;;23.10;47.70;;;;;;585742;93;3001969;-34
2020/12/02 09:57:52;;;;;;;10.95;5.97;;;23.10;47.50;;;;;;586171;94;3002192;-33
2020/12/02 10:00:23;;;;;;;9.30;5.35;;;23.20;47.60;;;;;;588339;94;3001947;-33
2020/12/02 10:03:16;;;;;;;8.43;5.45;;;23.10;47.30;;;;;;590306;94;3001723;-34
2020/12/02 10:06:17;;;;;;;7.95;5.22;;;23.20;47.40;;;;;;590684;94;3002008;-33
2020/12/02 10:09:07;;;;;;;10.85;6.17;;;23.20;47.20;;;;;;586340;95;3002171;-34
2020/12/02 10:12:05;;;;;;;12.03;5.72;;;23.20;47.30;;;;;;587464;95;3002821;-33
2020/12/02 10:15:08;;;;;;;13.35;5.42;;;23.20;47.20;;;;;;587663;94;3002695;-33
2020/12/02 10:17:59;;;;;;;9.00;5.28;;;23.20;47.30;;;;;;587219;95;3001966;-33
2020/12/02 10:20:33;;;;;;;10.45;4.97;;;23.20;47.30;;;;;;588821;95;3002557;-33
2020/12/02 10:23:25;;;;;;;10.88;5.15;;;23.20;47.00;;;;;;585344;94;3001727;-34
2020/12/02 10:26:04;;;;;;;9.08;4.92;;;23.20;46.80;;;;;;587900;93;3002963;-34
2020/12/02 10:28:43;;;;;;;7.40;5.30;;;23.20;46.80;;;;;;584484;95;3002529;-33
2020/12/02 10:31:26;;;;;;;5.80;4.28;;;23.20;46.90;;;;;;582705;96;3002339;-33
2020/12/02 10:33:57;;;;;;;9.40;6.03;;;23.20;46.80;;;;;;591957;94;3001932;-33
2020/12/02 10:36:27;;;;;;;10.80;5.78;;;23.10;46.80;;;;;;582844;95;3001980;-33
2020/12/02 10:38:58;;;;;;;11.38;5.10;;;23.20;46.80;;;;;;587853;94;3001883;-33
2020/12/02 10:41:44;;;;;;;11.57;4.97;;;23.20;46.70;;;;;;584602;95;3002444;-33
2020/12/02 10:44:34;;;;;;;7.72;5.20;;;23.10;46.60;;;;;;587513;94;3002054;-33
2020/12/02 10:47:13;;;;;;;7.87;4.92;;;23.10;46.50;;;;;;589793;94;3002311;-34
2020/12/02 10:49:44;;;;;;;11.95;5.92;;;23.10;46.70;;;;;;586767;94;3003456;-33
2020/12/02 10:52:15;;;;;;;7.33;4.33;;;23.20;46.60;;;;;;586556;95;3001917;-33
2020/12/02 10:54:45;;;;;;;8.90;4.78;;;23.10;46.50;;;;;;590447;94;3001925;-33
2020/12/02 10:57:21;;;;;;;9.03;5.05;;;23.10;46.60;;;;;;588114;95;3002174;-34
2020/12/02 10:59:54;;;;;;;7.00;5.00;;;23.10;46.50;;;;;;589374;94;3001970;-33
2020/12/02 11:02:23;;;;;;;;;;;23.10;46.60;;;;;;583154;95;3002384;-33
2020/12/02 11:04:51;;;;;;;15.78;4.80;;;23.10;46.50;;;;;;580375;96;3002358;-33
2020/12/02 11:07:38;;;;;;;8.25;4.87;;;23.00;46.50;;;;;;590966;95;3002061;-32
2020/12/02 11:10:28;;;;;;;9.90;4.75;;;23.10;46.50;;;;;;579960;94;3002030;-33
2020/12/02 11:13:16;;;;;;;9.48;5.10;;;23.00;46.50;;;;;;581642;95;3002736;-32
2020/12/02 11:16:01;;;;;;;7.28;4.62;;;23.00;46.70;;;;;;580462;95;3003000;-34
2020/12/02 11:18:32;;;;;;;8.63;4.47;;;23.00;46.40;;;;;;579593;95;3002015;-33
2020/12/02 11:21:40;;;;;;;5.97;4.60;;;23.00;46.40;;;;;;583062;94;3003093;-32
2020/12/02 11:24:14;;;;;;;7.45;4.65;;;23.00;46.40;;;;;;576761;95;3002006;-33
2020/12/02 11:26:42;;;;;;;8.88;4.83;;;23.00;46.30;;;;;;583605;94;3003575;-33
2020/12/02 11:29:12;;;;;;;6.87;4.53;;;22.90;46.20;;;;;;578426;94;3002471;-35
2020/12/02 11:31:48;;;;;;;7.35;4.58;;;22.90;46.20;;;;;;586473;94;3002325;-34
2020/12/02 11:34:36;;;;;;;7.25;4.20;;;22.90;46.20;;;;;;584836;95;3002885;-33
2020/12/02 11:37:09;;;;;;;9.40;4.72;;;22.90;46.10;;;;;;581268;95;3001686;-34
2020/12/02 11:40:03;;;;;;;5.67;3.87;;;22.90;46.10;;;;;;584700;94;3002060;-33
2020/12/02 11:42:48;;;;;;;5.42;4.05;;;22.90;46.00;;;;;;586942;94;3003725;-33
2020/12/02 11:45:22;;;;;;;8.33;3.83;;;22.90;46.10;;;;;;583689;95;3001973;-32
2020/12/02 11:48:08;;;;;;;5.65;3.87;;;22.90;46.30;;;;;;574794;95;3002384;-32
2020/12/02 11:50:47;;;;;;;10.90;3.80;;;22.90;46.10;;;;;;584599;94;3001644;-33
2020/12/02 11:53:18;;;;;;;4.95;3.83;;;22.90;46.10;;;;;;580052;94;3002272;-34
2020/12/02 11:55:45;;;;;;;6.17;3.60;;;22.80;43.90;;;;;;589568;94;3001996;-33
2020/12/02 11:58:15;;;;;;;8.58;3.75;;;22.70;44.00;;;;;;578500;95;3002018;-33
2020/12/02 12:00:43;;;;;;;6.67;3.50;;;22.70;44.80;;;;;;585385;94;3002951;-32
2020/12/02 12:03:36;;;;;;;4.67;3.72;;;22.70;45.00;;;;;;586287;93;3001970;-32
2020/12/02 12:06:09;;;;;;;9.25;3.87;;;22.70;44.90;;;;;;579915;94;3002434;-33
2020/12/02 12:08:51;;;;;;;7.60;4.20;;;22.70;45.00;;;;;;581846;95;3001683;-34
2020/12/02 12:11:25;;;;;;;5.47;3.47;;;22.70;45.00;;;;;;581860;94;3001940;-33
2020/12/02 12:14:01;;;;;;;7.85;3.55;;;22.60;44.90;;;;;;586338;94;3002014;-32
2020/12/02 12:16:35;;;;;;;19.17;4.47;;;22.60;44.90;;;;;;577035;95;3001960;-33
2020/12/02 12:19:08;;;;;;;8.98;3.33;;;22.70;45.20;;;;;;589650;93;3002030;-33
2020/12/02 12:21:48;;;;;;;4.40;3.65;;;22.60;43.40;;;;;;583143;94;3001914;-32
2020/12/02 12:24:18;;;;;;;4.90;3.27;;;22.50;41.20;;;;;;580644;94;3002014;-32
2020/12/02 12:26:48;;;;;;;9.08;3.37;;;22.50;41.90;;;;;;578311;95;3002436;-33
2020/12/02 12:29:16;;;;;;;8.03;3.52;;;22.50;40.80;;;;;;589453;94;3002447;-33
2020/12/02 12:31:49;;;;;;;5.40;3.12;;;22.40;40.90;;;;;;583355;94;3001997;-33
2020/12/02 12:34:23;;;;;;;;;;;22.40;40.30;;;;;;594447;92;3001988;-33
2020/12/02 12:36:54;;;;;;;8.05;3.60;;;22.40;41.40;;;;;;583924;94;3003620;-34
2020/12/02 12:39:24;;;;;;;12.00;3.65;;;22.50;41.30;;;;;;588958;93;3002046;-35
2020/12/02 12:41:53;;;;;;;6.28;3.17;;;22.40;41.10;;;;;;585474;94;3002029;-33
2020/12/02 12:44:27;;;;;;;4.35;3.08;;;22.50;41.50;;;;;;582520;94;3002324;-32
2020/12/02 12:47:14;;;;;;;5.47;2.90;;;22.50;41.40;;;;;;585927;94;3002968;-33
2020/12/02 12:49:42;;;;;;;3.47;2.65;;;22.50;41.40;;;;;;588886;94;3001920;-34
2020/12/02 12:52:12;;;;;;;7.53;2.72;;;22.50;41.50;;;;;;575450;96;3002711;-34
2020/12/02 12:54:41;;;;;;;2.52;2.33;;;22.60;41.70;;;;;;580996;93;3002392;-34
2020/12/02 12:57:11;;;;;;;3.85;2.92;;;22.60;41.70;;;;;;593055;93;3001538;-34
2020/12/02 12:59:39;;;;;;;3.12;2.50;;;22.60;41.60;;;;;;579879;94;3002551;-34
2020/12/02 13:02:22;;;;;;;4.78;2.87;;;22.60;41.70;;;;;;591860;94;3002027;-35
2020/12/02 13:04:50;;;;;;;3.60;2.33;;;22.60;41.60;;;;;;589034;94;3001999;-34
2020/12/02 13:07:32;;;;;;;3.40;2.05;;;22.60;41.70;;;;;;585846;94;3002355;-33